createdAt,value
2022-09-18T00:01:29.754Z,8.70
2022-09-18T00:03:58.683Z,8.70
2022-09-18T00:06:28.399Z,8.80
2022-09-18T00:08:58.164Z,8.80
2022-09-18T00:11:27.894Z,8.70
2022-09-18T00:13:55.302Z,8.80
2022-09-18T00:16:24.047Z,8.80
2022-09-18T00:18:51.053Z,8.80
2022-09-18T00:21:20.714Z,8.70
2022-09-18T00:23:47.915Z,8.70
2022-09-18T00:26:16.257Z,8.70
2022-09-18T00:28:43.510Z,8.70
2022-09-18T00:31:19.686Z,8.70
2022-09-18T00:33:46.642Z,8.70
2022-09-18T00:36:16.084Z,8.70
2022-09-18T00:38:43.645Z,8.70
2022-09-18T00:41:24.635Z,8.70
2022-09-18T00:44:01.487Z,8.70
2022-09-18T00:46:37.078Z,8.70
2022-09-18T00:49:16.599Z,8.70
2022-09-18T00:51:47.289Z,8.70
2022-09-18T00:54:28.075Z,8.70
2022-09-18T00:56:59.347Z,8.80
2022-09-18T00:59:29.546Z,8.80
2022-09-18T01:01:57.368Z,8.80
2022-09-18T01:04:24.755Z,8.70
2022-09-18T01:07:03.253Z,8.70
2022-09-18T01:09:34.440Z,8.70
2022-09-18T01:12:20.123Z,8.70
2022-09-18T01:15:18.716Z,8.70
2022-09-18T01:18:15.473Z,8.70
2022-09-18T01:20:56.819Z,8.70
2022-09-18T01:24:01.468Z,8.70
2022-09-18T01:26:40.614Z,8.70
2022-09-18T01:29:19.972Z,8.70
2022-09-18T01:32:04.913Z,8.70
2022-09-18T01:34:46.323Z,8.70
2022-09-18T01:37:36.099Z,8.60
2022-09-18T01:40:33.769Z,8.60
2022-09-18T01:43:05.961Z,8.60
2022-09-18T01:45:38.455Z,8.60
2022-09-18T01:48:08.511Z,8.60
2022-09-18T01:50:46.155Z,8.60
2022-09-18T01:53:23.428Z,8.60
2022-09-18T01:55:57.023Z,8.60
2022-09-18T01:58:26.125Z,8.60
2022-09-18T02:00:57.321Z,8.60
2022-09-18T02:03:41.917Z,8.60
2022-09-18T02:06:10.881Z,8.60
2022-09-18T02:08:47.733Z,8.50
2022-09-18T02:11:17.665Z,8.50
2022-09-18T02:13:52.665Z,8.50
2022-09-18T02:16:36.596Z,8.40
2022-09-18T02:19:08.978Z,8.40
2022-09-18T02:21:36.914Z,8.40
2022-09-18T02:24:08.380Z,8.30
2022-09-18T02:26:38.874Z,8.30
2022-09-18T02:29:07.767Z,8.20
2022-09-18T02:31:36.657Z,8.20
2022-09-18T02:34:03.444Z,8.20
2022-09-18T02:36:41.174Z,8.20
2022-09-18T02:39:32.022Z,8.10
2022-09-18T02:42:20.157Z,8.10
2022-09-18T02:45:06.200Z,8.10
2022-09-18T02:47:59.118Z,8.10
2022-09-18T02:50:55.140Z,8.10
2022-09-18T02:53:34.907Z,8.00
2022-09-18T02:56:12.413Z,8.00
2022-09-18T02:58:42.479Z,8.00
2022-09-18T03:01:11.875Z,7.90
2022-09-18T03:03:39.632Z,7.90
2022-09-18T03:06:09.270Z,8.00
2022-09-18T03:08:37.373Z,8.00
2022-09-18T03:11:05.425Z,8.10
2022-09-18T03:13:33.426Z,8.10
2022-09-18T03:16:00.293Z,8.10
2022-09-18T03:18:27.275Z,8.10
2022-09-18T03:20:56.065Z,8.10
2022-09-18T03:23:23.737Z,8.10
2022-09-18T03:25:53.880Z,8.20
2022-09-18T03:28:20.628Z,8.10
2022-09-18T03:30:47.610Z,8.10
2022-09-18T03:33:15.874Z,8.10
2022-09-18T03:35:44.193Z,8.10
2022-09-18T03:38:10.979Z,8.10
2022-09-18T03:40:38.509Z,8.10
2022-09-18T03:43:06.392Z,8.10
2022-09-18T03:45:33.163Z,8.10
2022-09-18T03:48:01.886Z,8.10
2022-09-18T03:50:29.302Z,8.10
2022-09-18T03:52:56.786Z,8.10
2022-09-18T03:55:36.573Z,8.10
2022-09-18T03:58:21.753Z,8.10
2022-09-18T04:01:07.369Z,8.10
2022-09-18T04:03:53.197Z,8.20
2022-09-18T04:06:39.852Z,8.30
2022-09-18T04:09:29.376Z,8.30
2022-09-18T04:11:56.109Z,8.40
2022-09-18T04:14:25.639Z,8.40
2022-09-18T04:16:56.475Z,8.50
2022-09-18T04:19:23.320Z,8.50
2022-09-18T04:21:49.999Z,8.60
2022-09-18T04:24:16.703Z,8.60
2022-09-18T04:26:44.362Z,8.70
2022-09-18T04:29:11.255Z,8.60
2022-09-18T04:31:38.132Z,8.70
2022-09-18T04:34:09.633Z,8.70
2022-09-18T04:36:36.567Z,8.70
2022-09-18T04:39:04.003Z,8.70
2022-09-18T04:41:30.901Z,8.70
2022-09-18T04:43:58.065Z,8.60
2022-09-18T04:46:24.888Z,8.60
2022-09-18T04:48:53.998Z,8.60
2022-09-18T04:51:24.118Z,8.60
2022-09-18T04:53:51.148Z,8.50
2022-09-18T04:56:18.306Z,8.40
2022-09-18T04:58:49.411Z,8.40
2022-09-18T05:01:16.585Z,8.40
2022-09-18T05:03:43.388Z,8.40
2022-09-18T05:06:17.121Z,8.30
2022-09-18T05:08:44.018Z,8.30
2022-09-18T05:11:10.663Z,8.30
2022-09-18T05:13:40.089Z,8.30
2022-09-18T05:16:14.045Z,8.20
2022-09-18T05:18:42.725Z,8.20
2022-09-18T05:21:10.073Z,8.20
2022-09-18T05:23:37.628Z,8.20
2022-09-18T05:26:04.683Z,8.20
2022-09-18T05:28:32.094Z,8.20
2022-09-18T05:31:00.878Z,8.20
2022-09-18T05:33:36.762Z,8.20
2022-09-18T05:36:05.580Z,8.20
2022-09-18T05:38:33.156Z,8.50
2022-09-18T05:41:01.706Z,8.80
2022-09-18T05:43:29.140Z,9.10
2022-09-18T05:45:56.588Z,9.50
2022-09-18T05:48:33.152Z,9.90
2022-09-18T05:51:00.276Z,10.30
2022-09-18T05:53:28.070Z,10.80
2022-09-18T05:56:08.069Z,11.20
2022-09-18T05:58:34.762Z,11.60
2022-09-18T06:01:04.508Z,11.90
2022-09-18T06:03:50.817Z,12.00
2022-09-18T06:06:18.839Z,11.60
2022-09-18T06:08:45.631Z,11.20
2022-09-18T06:11:14.578Z,11.20
2022-09-18T06:13:41.474Z,11.60
2022-09-18T06:16:08.627Z,12.30
2022-09-18T06:18:50.551Z,12.80
2022-09-18T06:21:17.363Z,13.30
2022-09-18T06:23:44.790Z,13.60
2022-09-18T06:26:23.470Z,13.80
2022-09-18T06:28:51.539Z,14.00
2022-09-18T06:31:18.745Z,14.20
2022-09-18T06:34:04.103Z,14.40
2022-09-18T06:36:30.933Z,14.60
2022-09-18T06:39:15.956Z,14.80
2022-09-18T06:41:44.545Z,15.10
2022-09-18T06:44:20.953Z,15.30
2022-09-18T06:46:53.751Z,15.40
2022-09-18T06:49:27.560Z,15.70
2022-09-18T06:51:54.354Z,15.80
2022-09-18T06:54:21.092Z,15.80
2022-09-18T06:56:49.314Z,16.00
2022-09-18T06:59:17.885Z,16.20
2022-09-18T07:01:47.131Z,16.10
2022-09-18T07:04:23.774Z,15.90
2022-09-18T07:06:51.438Z,15.80
2022-09-18T07:09:18.831Z,15.90
2022-09-18T07:12:01.578Z,16.30
2022-09-18T07:14:48.554Z,16.30
2022-09-18T07:17:18.670Z,16.10
2022-09-18T07:19:49.109Z,15.50
2022-09-18T07:22:17.512Z,14.80
2022-09-18T07:24:47.171Z,14.70
2022-09-18T07:27:14.155Z,15.10
2022-09-18T07:29:42.124Z,15.30
2022-09-18T07:32:12.099Z,15.50
2022-09-18T07:34:39.015Z,16.10
2022-09-18T07:37:10.295Z,16.30
2022-09-18T07:39:37.230Z,16.40
2022-09-18T07:42:32.865Z,16.50
2022-09-18T07:45:00.993Z,17.10
2022-09-18T07:47:30.195Z,16.70
2022-09-18T07:49:59.615Z,16.30
2022-09-18T07:52:26.271Z,15.80
2022-09-18T07:54:53.119Z,15.40
2022-09-18T07:57:28.482Z,15.00
2022-09-18T08:00:10.827Z,15.20
2022-09-18T08:02:46.304Z,15.70
2022-09-18T08:05:25.438Z,16.30
2022-09-18T08:08:03.487Z,16.40
2022-09-18T08:11:05.882Z,16.10
2022-09-18T08:13:55.919Z,15.20
2022-09-18T08:16:38.202Z,14.50
2022-09-18T08:19:23.762Z,13.90
2022-09-18T08:21:53.517Z,13.40
2022-09-18T08:24:22.023Z,13.00
2022-09-18T08:26:49.817Z,12.80
2022-09-18T08:29:19.327Z,12.70
2022-09-18T08:32:05.475Z,13.00
2022-09-18T08:34:36.559Z,13.70
2022-09-18T08:37:03.272Z,14.10
2022-09-18T08:39:59.858Z,14.10
2022-09-18T08:42:54.864Z,13.90
2022-09-18T08:45:42.041Z,13.70
2022-09-18T08:48:19.242Z,13.50
2022-09-18T08:50:56.827Z,13.40
2022-09-18T08:53:47.210Z,13.50
2022-09-18T08:56:50.485Z,13.60
2022-09-18T08:59:39.594Z,13.60
2022-09-18T09:02:20.779Z,13.70
2022-09-18T09:04:50.288Z,13.60
2022-09-18T09:07:30.540Z,13.70
2022-09-18T09:10:15.764Z,14.20
2022-09-18T09:12:59.271Z,14.90
2022-09-18T09:15:56.730Z,14.90
2022-09-18T09:18:33.328Z,14.60
2022-09-18T09:21:20.687Z,14.40
2022-09-18T09:24:06.207Z,14.40
2022-09-18T09:26:54.183Z,14.30
2022-09-18T09:30:04.528Z,13.90
2022-09-18T09:32:57.103Z,13.60
2022-09-18T09:35:45.426Z,13.30
2022-09-18T09:38:42.129Z,13.00
2022-09-18T09:41:19.642Z,12.70
2022-09-18T09:44:22.988Z,12.50
2022-09-18T09:47:28.251Z,12.30
2022-09-18T09:50:19.536Z,12.10
2022-09-18T09:52:47.667Z,12.20
2022-09-18T09:55:21.949Z,12.30
2022-09-18T09:58:02.415Z,12.40
2022-09-18T10:00:35.784Z,12.40
2022-09-18T10:03:28.996Z,12.50
2022-09-18T10:06:41.754Z,12.90
2022-09-18T10:09:14.867Z,13.70
2022-09-18T10:11:47.445Z,13.90
2022-09-18T10:14:19.736Z,13.90
2022-09-18T10:16:50.678Z,13.80
2022-09-18T10:19:20.531Z,13.60
2022-09-18T10:21:50.972Z,13.80
2022-09-18T10:24:46.967Z,14.00
2022-09-18T10:27:16.023Z,14.20
2022-09-18T10:29:43.733Z,14.30
2022-09-18T10:32:33.500Z,14.20
2022-09-18T10:35:31.128Z,14.10
2022-09-18T10:37:59.288Z,14.00
2022-09-18T10:40:37.346Z,13.90
2022-09-18T10:43:07.254Z,13.60
2022-09-18T10:45:41.631Z,13.40
2022-09-18T10:48:26.281Z,13.30
2022-09-18T10:51:01.836Z,13.30
2022-09-18T10:53:42.322Z,13.40
2022-09-18T10:56:19.375Z,13.50
2022-09-18T10:58:47.496Z,13.40
2022-09-18T11:01:14.706Z,13.50
2022-09-18T11:04:01.346Z,13.60
2022-09-18T11:06:34.295Z,13.70
2022-09-18T11:09:19.906Z,13.80
2022-09-18T11:11:51.346Z,14.10
2022-09-18T11:14:32.788Z,14.70
2022-09-18T11:17:04.552Z,15.40
2022-09-18T11:19:39.710Z,15.60
2022-09-18T11:22:42.705Z,15.30
2022-09-18T11:25:35.629Z,14.90
2022-09-18T11:28:28.235Z,14.40
2022-09-18T11:31:00.978Z,14.00
2022-09-18T11:33:31.820Z,13.50
2022-09-18T11:36:05.416Z,13.20
2022-09-18T11:38:38.817Z,12.90
2022-09-18T11:41:05.585Z,12.60
2022-09-18T11:43:41.311Z,12.60
2022-09-18T11:46:47.744Z,12.70
2022-09-18T11:49:23.009Z,12.90
2022-09-18T11:52:09.794Z,12.90
2022-09-18T11:54:54.895Z,12.90
2022-09-18T11:57:27.166Z,12.60
2022-09-18T12:00:00.113Z,12.20
2022-09-18T12:02:30.880Z,11.60
2022-09-18T12:05:04.584Z,11.00
2022-09-18T12:07:57.719Z,10.60
2022-09-18T12:10:56.567Z,10.50
2022-09-18T12:13:47.012Z,10.40
2022-09-18T12:16:45.782Z,10.40
2022-09-18T12:19:34.662Z,10.60
2022-09-18T12:22:17.300Z,10.70
2022-09-18T12:24:45.538Z,10.80
2022-09-18T12:27:20.014Z,10.70
2022-09-18T12:30:09.530Z,10.80
2022-09-18T12:32:59.283Z,10.80
2022-09-18T12:35:44.331Z,11.00
2022-09-18T12:38:20.280Z,11.10
2022-09-18T12:41:24.074Z,11.20
2022-09-18T12:44:10.421Z,11.20
2022-09-18T12:46:48.604Z,11.10
2022-09-18T12:49:47.510Z,11.10
2022-09-18T12:52:23.012Z,11.10
2022-09-18T12:55:22.079Z,11.10
2022-09-18T12:58:26.746Z,11.00
2022-09-18T13:00:54.504Z,10.90
2022-09-18T13:03:30.401Z,10.80
2022-09-18T13:06:04.112Z,10.70
2022-09-18T13:08:40.823Z,10.60
2022-09-18T13:11:41.793Z,10.60
2022-09-18T13:14:16.455Z,10.50
2022-09-18T13:17:09.966Z,10.40
2022-09-18T13:19:43.403Z,10.40
2022-09-18T13:22:15.858Z,10.30
2022-09-18T13:24:43.836Z,10.30
2022-09-18T13:27:15.766Z,10.30
2022-09-18T13:29:52.516Z,10.30
2022-09-18T13:32:35.164Z,10.30
2022-09-18T13:35:06.104Z,10.30
2022-09-18T13:37:32.873Z,10.20
2022-09-18T13:40:10.826Z,10.20
2022-09-18T13:42:43.275Z,10.10
2022-09-18T13:45:20.519Z,10.00
2022-09-18T13:48:23.135Z,10.00
2022-09-18T13:50:54.962Z,10.00
2022-09-18T13:53:43.508Z,10.00
2022-09-18T13:56:17.492Z,10.00
2022-09-18T13:58:50.030Z,10.10
2022-09-18T14:01:42.987Z,10.00
2022-09-18T14:04:40.660Z,10.00
2022-09-18T14:07:16.654Z,10.00
2022-09-18T14:10:04.166Z,10.00
2022-09-18T14:12:34.439Z,10.00
2022-09-18T14:15:22.253Z,10.00
2022-09-18T14:18:52.632Z,10.00
2022-09-18T14:21:19.407Z,9.90
2022-09-18T14:23:46.138Z,9.90
2022-09-18T14:26:36.151Z,9.90
2022-09-18T14:29:14.995Z,9.80
2022-09-18T14:31:44.829Z,9.80
2022-09-18T14:34:22.419Z,9.80
2022-09-18T14:36:55.153Z,9.70
2022-09-18T14:39:26.594Z,9.70
2022-09-18T14:42:01.439Z,9.60
2022-09-18T14:44:29.733Z,9.60
2022-09-18T14:47:03.063Z,9.60
2022-09-18T14:49:42.935Z,9.60
2022-09-18T14:52:21.753Z,9.60
2022-09-18T14:54:50.088Z,9.60
2022-09-18T14:57:20.618Z,9.60
2022-09-18T14:59:53.128Z,9.60
2022-09-18T15:02:27.389Z,9.50
2022-09-18T15:04:54.259Z,9.60
2022-09-18T15:07:23.367Z,9.50
2022-09-18T15:09:54.846Z,9.50
2022-09-18T15:12:24.611Z,9.50
2022-09-18T15:14:52.080Z,9.50
2022-09-18T15:17:23.588Z,9.50
2022-09-18T15:20:14.811Z,9.50
2022-09-18T15:22:41.772Z,9.50
2022-09-18T15:25:13.566Z,9.50
2022-09-18T15:27:41.997Z,9.50
2022-09-18T15:30:18.745Z,9.40
2022-09-18T15:33:01.111Z,9.40
2022-09-18T15:35:32.111Z,9.40
2022-09-18T15:38:03.327Z,9.40
2022-09-18T15:40:36.272Z,9.40
2022-09-18T15:43:23.424Z,9.40
2022-09-18T15:46:05.257Z,9.40
2022-09-18T15:48:44.058Z,9.40
2022-09-18T15:51:18.693Z,9.50
2022-09-18T15:54:00.848Z,9.50
2022-09-18T15:56:28.011Z,9.50
2022-09-18T15:58:58.212Z,9.50
2022-09-18T16:01:35.064Z,9.50
2022-09-18T16:04:27.041Z,9.50
2022-09-18T16:07:06.488Z,9.50
2022-09-18T16:09:43.767Z,9.50
2022-09-18T16:12:32.528Z,9.60
2022-09-18T16:15:11.225Z,9.60
2022-09-18T16:17:40.522Z,9.60
2022-09-18T16:20:26.220Z,9.60
2022-09-18T16:22:55.969Z,9.50
2022-09-18T16:25:27.028Z,9.60
2022-09-18T16:27:56.438Z,9.60
2022-09-18T16:30:24.098Z,9.60
2022-09-18T16:33:05.330Z,9.60
2022-09-18T16:35:32.042Z,9.60
2022-09-18T16:37:58.705Z,9.50
2022-09-18T16:40:27.942Z,9.50
2022-09-18T16:42:58.280Z,9.40
2022-09-18T16:45:27.004Z,9.40
2022-09-18T16:47:58.818Z,9.30
2022-09-18T16:50:27.403Z,9.30
2022-09-18T16:52:56.615Z,9.20
2022-09-18T16:55:25.703Z,9.20
2022-09-18T16:57:53.048Z,9.10
2022-09-18T17:00:19.865Z,9.10
2022-09-18T17:02:46.855Z,9.10
2022-09-18T17:05:13.545Z,9.10
2022-09-18T17:07:42.558Z,9.00
2022-09-18T17:10:12.381Z,8.80
2022-09-18T17:12:40.528Z,8.60
2022-09-18T17:15:08.734Z,8.40
2022-09-18T17:17:35.692Z,8.30
2022-09-18T17:20:03.430Z,8.10
2022-09-18T17:22:31.270Z,8.00
2022-09-18T17:24:58.066Z,7.90
2022-09-18T17:27:25.877Z,7.80
2022-09-18T17:29:52.692Z,7.80
2022-09-18T17:32:19.635Z,7.70
2022-09-18T17:34:46.471Z,7.70
2022-09-18T17:37:13.169Z,7.70
2022-09-18T17:39:39.923Z,7.70
2022-09-18T17:42:06.840Z,7.60
2022-09-18T17:44:35.280Z,7.60
2022-09-18T17:47:02.085Z,7.60
2022-09-18T17:49:31.758Z,7.50
2022-09-18T17:51:58.842Z,7.50
2022-09-18T17:54:26.139Z,7.40
2022-09-18T17:56:52.795Z,7.40
2022-09-18T17:59:19.831Z,7.40
2022-09-18T18:01:48.926Z,7.30
2022-09-18T18:04:16.410Z,7.30
2022-09-18T18:06:43.238Z,7.30
2022-09-18T18:09:10.476Z,7.30
2022-09-18T18:11:37.647Z,7.30
2022-09-18T18:14:05.452Z,7.30
2022-09-18T18:16:33.360Z,7.30
2022-09-18T18:19:05.780Z,7.30
2022-09-18T18:21:33.672Z,7.30
2022-09-18T18:24:03.759Z,7.30
2022-09-18T18:26:31.051Z,7.30
2022-09-18T18:28:57.920Z,7.40
2022-09-18T18:31:25.705Z,7.40
2022-09-18T18:33:54.694Z,7.40
2022-09-18T18:36:27.051Z,7.40
2022-09-18T18:39:01.679Z,7.40
2022-09-18T18:41:29.848Z,7.40
2022-09-18T18:44:02.335Z,7.40
2022-09-18T18:46:33.425Z,7.30
2022-09-18T18:49:02.794Z,7.40
2022-09-18T18:51:32.439Z,7.40
2022-09-18T18:54:03.793Z,7.30
2022-09-18T18:56:33.918Z,7.30
2022-09-18T18:59:03.170Z,7.40
2022-09-18T19:01:31.092Z,7.40
2022-09-18T19:04:06.647Z,7.40
2022-09-18T19:06:36.342Z,7.40
2022-09-18T19:09:09.423Z,7.40
2022-09-18T19:11:50.541Z,7.40
2022-09-18T19:14:26.004Z,7.40
2022-09-18T19:16:54.504Z,7.50
2022-09-18T19:19:23.663Z,7.50
2022-09-18T19:21:50.970Z,7.40
2022-09-18T19:24:20.640Z,7.40
2022-09-18T19:26:48.260Z,7.40
2022-09-18T19:29:16.830Z,7.40
2022-09-18T19:31:45.382Z,7.40
2022-09-18T19:34:14.213Z,7.40
2022-09-18T19:36:41.287Z,7.40
2022-09-18T19:39:11.403Z,7.40
2022-09-18T19:41:51.986Z,7.40
2022-09-18T19:44:31.438Z,7.40
2022-09-18T19:47:01.924Z,7.30
2022-09-18T19:49:35.273Z,7.30
2022-09-18T19:52:03.064Z,7.30
2022-09-18T19:54:30.955Z,7.30
2022-09-18T19:56:59.149Z,7.30
2022-09-18T19:59:25.979Z,7.30
2022-09-18T20:01:53.507Z,7.30
2022-09-18T20:04:20.394Z,7.40
2022-09-18T20:06:47.108Z,7.40
2022-09-18T20:09:13.783Z,7.40
2022-09-18T20:11:40.505Z,7.50
2022-09-18T20:14:07.209Z,7.60
2022-09-18T20:16:34.041Z,7.60
2022-09-18T20:19:01.606Z,7.70
2022-09-18T20:21:29.760Z,7.70
2022-09-18T20:23:58.046Z,7.80
2022-09-18T20:26:25.840Z,7.80
2022-09-18T20:28:52.558Z,7.80
2022-09-18T20:31:20.637Z,7.90
2022-09-18T20:33:47.354Z,7.80
2022-09-18T20:36:14.292Z,7.90
2022-09-18T20:38:42.237Z,7.90
2022-09-18T20:41:13.403Z,7.90
2022-09-18T20:43:41.870Z,7.90
2022-09-18T20:46:13.246Z,7.90
2022-09-18T20:48:41.394Z,7.90
2022-09-18T20:51:10.262Z,7.90
2022-09-18T20:53:39.274Z,8.00
2022-09-18T20:56:11.196Z,7.90
2022-09-18T20:58:42.111Z,8.00
2022-09-18T21:01:14.191Z,8.00
2022-09-18T21:03:42.996Z,8.00
2022-09-18T21:06:22.437Z,8.10
2022-09-18T21:08:53.402Z,8.10
2022-09-18T21:11:28.648Z,8.10
2022-09-18T21:13:59.316Z,8.10
2022-09-18T21:16:28.466Z,8.10
2022-09-18T21:18:57.846Z,8.10
2022-09-18T21:21:26.543Z,8.10
2022-09-18T21:24:00.715Z,8.10
2022-09-18T21:26:35.527Z,8.10
2022-09-18T21:29:15.103Z,8.10
2022-09-18T21:31:42.925Z,8.10
2022-09-18T21:34:12.648Z,8.10
2022-09-18T21:36:43.269Z,8.10
2022-09-18T21:39:14.383Z,8.10
2022-09-18T21:41:46.073Z,8.10
2022-09-18T21:44:15.052Z,8.10
2022-09-18T21:46:43.980Z,8.10
2022-09-18T21:49:11.760Z,8.10
2022-09-18T21:51:42.033Z,8.10
2022-09-18T21:54:15.171Z,8.10
2022-09-18T21:56:44.008Z,8.10
2022-09-18T21:59:11.425Z,8.10
2022-09-18T22:01:38.370Z,8.10
2022-09-18T22:04:07.278Z,8.10
2022-09-18T22:06:42.749Z,8.10
2022-09-18T22:09:16.067Z,8.10
2022-09-18T22:11:44.374Z,8.20
2022-09-18T22:14:17.566Z,8.10
2022-09-18T22:16:45.818Z,8.20
2022-09-18T22:19:13.823Z,8.20
2022-09-18T22:21:43.796Z,8.10
2022-09-18T22:24:14.184Z,8.10
2022-09-18T22:26:44.047Z,8.10
2022-09-18T22:29:31.179Z,8.10
2022-09-18T22:31:59.476Z,8.10
2022-09-18T22:34:28.245Z,8.10
2022-09-18T22:36:55.618Z,8.10
2022-09-18T22:39:22.846Z,8.10
2022-09-18T22:41:51.533Z,8.10
2022-09-18T22:44:21.212Z,8.20
2022-09-18T22:46:48.913Z,8.10
2022-09-18T22:49:17.488Z,8.10
2022-09-18T22:51:45.358Z,8.10
2022-09-18T22:54:13.156Z,8.10
2022-09-18T22:56:44.510Z,8.10
2022-09-18T22:59:16.189Z,8.10
2022-09-18T23:01:51.168Z,8.20
2022-09-18T23:04:19.743Z,8.20
2022-09-18T23:06:47.841Z,8.20
2022-09-18T23:09:16.863Z,8.20
2022-09-18T23:11:45.324Z,8.10
2022-09-18T23:14:14.836Z,8.20
2022-09-18T23:16:41.584Z,8.20
2022-09-18T23:19:13.479Z,8.20
2022-09-18T23:21:40.381Z,8.10
2022-09-18T23:24:09.288Z,8.10
2022-09-18T23:26:42.039Z,8.10
2022-09-18T23:29:15.024Z,8.20
2022-09-18T23:31:44.430Z,8.20
2022-09-18T23:34:13.691Z,8.20
2022-09-18T23:36:46.618Z,8.20
2022-09-18T23:39:22.473Z,8.20
2022-09-18T23:41:50.117Z,8.20
2022-09-18T23:44:18.282Z,8.20
2022-09-18T23:46:45.551Z,8.10
2022-09-18T23:49:13.898Z,8.20
2022-09-18T23:51:43.284Z,8.10
2022-09-18T23:54:22.829Z,8.10
2022-09-18T23:56:50.659Z,8.10
2022-09-18T23:59:22.675Z,8.20
